QUAO2: Spring River Near Quapaw, OK

                                SHEF ID:       QUAO2     Spring River near Quapaw, OK
STATION TYPE:
Regulating: Stage = 20.00, Flow = 33834

PRECIP STAGE STAGE(2) RIV-FLOW BAT-LOAD
in ft ft cfs volt
Ccp-Rev Ccp-Rev Ccp-Rev Ccp-Rev Ccp-Rev
(America/Chicago)
04/06 00:00 0.00 8.24 8.26 3356 12.49
04/06 01:00 0.00 8.20 8.23 3286 12.46
04/06 02:00 0.00 8.18 8.22 3251 12.43
04/06 03:00 0.00 8.18 8.20 3251 12.40
04/06 04:00 0.00 8.14 8.18 3184 12.37
04/06 05:00 0.00 8.14 8.16 3184 12.34
04/06 06:00 0.00 8.11 8.14 3136 12.30
04/06 07:00 0.00 8.06 8.11 3057 12.29
04/06 08:00 0.00 8.06 8.09 3057 12.30
04/06 09:00 0.00 8.04 8.05 3026 12.72
04/06 10:00 0.00 8.00 8.02 2964 13.16
04/06 11:00 0.00 7.97 7.98 2918 13.57
04/06 12:00 0.00 7.93 7.94 2857 13.06
04/06 13:00 0.00 7.92 7.91 2842 13.24
04/06 14:00 0.00 7.88 7.87 2782 13.11
04/06 15:00 0.00 7.84 7.83 2723 12.94
04/06 16:00 0.00 7.81 7.79 2679 12.93
04/06 17:00 0.00 7.77 7.75 2621 12.90
04/06 18:00 0.00 7.73 7.72 2564 12.84
04/06 19:00 0.00 7.70 7.69 2522 12.77
04/06 20:00 0.00 7.65 7.65 2452 12.63
04/06 21:00 0.00 7.63 7.62 2425 12.53
04/06 22:00 0.00 7.60 7.59 2384 12.50
04/06 23:00 0.00 7.56 7.57 2330 12.11
Data processed at Tue 07Apr2026 04:21 GMT

NOTICE: If you are parsing this page

Please convert to using our Data API. Starting early 2026 we will be migrating to: https://water.usace.army.mil with modern pages rendered in JavaScript. When this migration completes you will no longer be able to scrape this page! CWMSDataAPI (CDA)

Timeseries IDs (TSIDs)

TSIDs used from left to right in the data table
QUAP.Precip-Inc.Total.1Hour.1Hour.Ccp-Rev
QUAP.Stage.Inst.1Hour.0.Ccp-Rev
QUAP.Stage-Alt.Inst.1Hour.0.Ccp-Rev
QUAP.Flow.Inst.1Hour.0.Ccp-Rev
QUAP.Volt-Battery Load.Inst.1Hour.0.Ccp-Rev

                            

All information presented herein is the property of the government of the United States of America and may be revised or deleted at any time without prior notice. Dissemination of this information without the expressed written consent of the Public Affairs Office, Tulsa District U.S. Army Corps of Engineers is strictly prohibited. These data are gathered electronically and, as presented, have NOT undergone any form of quality control. These data are NOT guaranteed to be valid or correct.